createdAt,value
2022-12-16T00:01:31.021Z,7.77
2022-12-16T00:06:34.159Z,7.78
2022-12-16T00:11:36.157Z,7.80
2022-12-16T00:16:42.461Z,7.78
2022-12-16T00:21:44.260Z,7.68
2022-12-16T00:26:45.994Z,7.60
2022-12-16T00:31:48.257Z,7.48
2022-12-16T00:36:50.160Z,7.34
2022-12-16T00:41:52.427Z,7.31
2022-12-16T00:46:53.993Z,7.32
2022-12-16T00:51:56.854Z,7.37
2022-12-16T00:56:58.427Z,7.44
2022-12-16T01:02:00.340Z,7.42
2022-12-16T01:07:03.136Z,7.47
2022-12-16T01:12:06.055Z,7.35
2022-12-16T01:17:07.799Z,7.24
2022-12-16T01:22:09.446Z,7.25
2022-12-16T01:27:11.640Z,7.25
2022-12-16T01:32:13.977Z,7.20
2022-12-16T01:37:15.883Z,7.14
2022-12-16T01:42:20.655Z,7.07
2022-12-16T01:47:27.313Z,6.96
2022-12-16T01:52:37.529Z,6.91
2022-12-16T01:57:48.162Z,6.81
2022-12-16T02:02:51.523Z,6.75
2022-12-16T02:08:04.736Z,6.74
2022-12-16T02:13:12.353Z,6.76
2022-12-16T02:18:29.678Z,6.78
2022-12-16T02:23:56.171Z,6.73
2022-12-16T02:29:24.655Z,6.75
2022-12-16T02:34:49.999Z,6.91
2022-12-16T02:40:00.462Z,6.95
2022-12-16T02:45:13.284Z,6.89
2022-12-16T02:50:46.915Z,6.85
2022-12-16T02:56:13.723Z,6.82
2022-12-16T03:01:43.755Z,6.81
2022-12-16T03:06:50.168Z,6.83
2022-12-16T03:11:54.651Z,6.80
2022-12-16T03:16:57.371Z,6.81
2022-12-16T03:22:13.984Z,6.90
2022-12-16T03:27:25.046Z,6.80
2022-12-16T03:32:39.093Z,6.61
2022-12-16T03:37:42.989Z,6.54
2022-12-16T03:42:45.242Z,6.51
2022-12-16T03:47:53.706Z,6.45
2022-12-16T03:52:56.273Z,6.36
2022-12-16T03:57:58.233Z,6.34
2022-12-16T04:03:00.321Z,6.39
2022-12-16T04:08:02.567Z,6.44
2022-12-16T04:13:23.122Z,6.46
2022-12-16T04:18:43.632Z,6.36
2022-12-16T04:24:13.800Z,6.24
2022-12-16T04:29:15.555Z,6.20
2022-12-16T04:34:26.085Z,6.19
2022-12-16T04:39:46.319Z,6.14
2022-12-16T04:45:06.851Z,6.18
2022-12-16T04:50:27.856Z,6.25
2022-12-16T04:55:48.516Z,6.26
2022-12-16T05:01:09.666Z,6.28
2022-12-16T05:06:50.477Z,6.31
2022-12-16T05:12:11.857Z,6.33
2022-12-16T05:17:31.999Z,6.31
2022-12-16T05:22:52.546Z,6.25
2022-12-16T05:28:14.218Z,6.25
2022-12-16T05:33:35.134Z,6.24
2022-12-16T05:38:55.622Z,6.23
2022-12-16T05:44:16.107Z,6.26
2022-12-16T05:49:36.623Z,6.31
2022-12-16T05:54:56.863Z,6.26
2022-12-16T06:00:17.339Z,6.19
2022-12-16T06:05:38.055Z,6.18
2022-12-16T06:10:58.514Z,6.21
2022-12-16T06:16:19.124Z,6.28
2022-12-16T06:21:39.455Z,6.23
2022-12-16T06:27:00.033Z,6.22
2022-12-16T06:32:20.492Z,6.14
2022-12-16T06:37:40.989Z,6.05
2022-12-16T06:43:02.025Z,6.01
2022-12-16T06:48:22.618Z,6.07
2022-12-16T06:53:43.228Z,6.14
2022-12-16T06:59:03.870Z,6.14
2022-12-16T07:04:24.198Z,6.17
2022-12-16T07:09:44.703Z,6.28
2022-12-16T07:15:05.157Z,6.43
2022-12-16T07:20:26.219Z,6.48
2022-12-16T07:25:46.536Z,6.52
2022-12-16T07:31:06.976Z,6.47
2022-12-16T07:36:31.621Z,6.41
2022-12-16T07:41:56.577Z,6.44
2022-12-16T07:47:16.999Z,6.46
2022-12-16T07:52:37.528Z,6.39
2022-12-16T07:57:58.131Z,6.44
2022-12-16T08:03:18.685Z,6.59
2022-12-16T08:08:39.291Z,6.74
2022-12-16T08:13:59.764Z,6.80
2022-12-16T08:19:20.395Z,6.82
2022-12-16T08:24:40.880Z,6.88
2022-12-16T08:30:01.389Z,6.92
2022-12-16T08:35:22.667Z,7.16
2022-12-16T08:40:42.921Z,6.99
2022-12-16T08:46:03.618Z,6.91
2022-12-16T08:51:25.640Z,6.86
2022-12-16T08:56:46.258Z,6.91
2022-12-16T09:02:06.662Z,7.09
2022-12-16T09:07:27.042Z,7.20
2022-12-16T09:12:47.341Z,7.32
2022-12-16T09:18:25.135Z,7.47
2022-12-16T09:23:45.606Z,7.44
2022-12-16T09:29:06.127Z,7.50
2022-12-16T09:34:26.709Z,7.43
2022-12-16T09:39:47.232Z,7.55
2022-12-16T09:45:36.774Z,7.61
2022-12-16T09:51:00.359Z,7.67
2022-12-16T09:56:42.372Z,7.79
2022-12-16T10:02:03.336Z,7.83
2022-12-16T10:07:32.251Z,7.80
2022-12-16T10:13:15.444Z,7.77
2022-12-16T10:19:10.047Z,7.80
2022-12-16T10:24:58.858Z,7.84
2022-12-16T10:30:21.894Z,7.92
2022-12-16T10:35:47.972Z,7.94
2022-12-16T10:41:09.186Z,8.13
2022-12-16T10:46:37.660Z,8.20
2022-12-16T10:51:58.240Z,8.30
2022-12-16T10:58:13.401Z,8.24
2022-12-16T11:03:39.000Z,8.22
2022-12-16T11:08:59.883Z,8.43
2022-12-16T11:14:32.764Z,8.65
2022-12-16T11:19:53.253Z,8.70
2022-12-16T11:25:43.349Z,8.55
2022-12-16T11:31:12.548Z,8.40
2022-12-16T11:36:39.079Z,8.48
2022-12-16T11:42:12.101Z,8.62
2022-12-16T11:47:53.556Z,8.79
2022-12-16T11:53:16.080Z,8.81
2022-12-16T11:58:50.088Z,8.63
2022-12-16T12:04:11.496Z,8.35
2022-12-16T12:09:33.856Z,8.15
2022-12-16T12:15:01.928Z,7.99
2022-12-16T12:20:47.717Z,7.70
2022-12-16T12:26:42.826Z,7.67
2022-12-16T12:32:06.283Z,7.90
2022-12-16T12:37:47.051Z,8.14
2022-12-16T12:43:14.457Z,8.28
2022-12-16T12:48:43.291Z,8.19
2022-12-16T12:54:19.157Z,8.15
2022-12-16T13:00:01.738Z,8.10
2022-12-16T13:05:24.758Z,8.16
2022-12-16T13:10:53.363Z,8.22
2022-12-16T13:16:13.861Z,8.24
2022-12-16T13:21:57.030Z,8.07
2022-12-16T13:27:21.727Z,7.97
2022-12-16T13:32:46.466Z,7.93
2022-12-16T13:38:37.193Z,7.88
2022-12-16T13:44:11.503Z,7.87
2022-12-16T13:50:12.012Z,7.75
2022-12-16T13:55:37.431Z,7.58
2022-12-16T14:01:00.625Z,7.50
2022-12-16T14:06:25.047Z,7.52
2022-12-16T14:12:07.793Z,7.45
2022-12-16T14:17:40.009Z,7.23
2022-12-16T14:23:55.747Z,7.09
2022-12-16T14:29:16.275Z,7.06
2022-12-16T14:34:40.244Z,7.04
2022-12-16T14:40:00.762Z,7.13
2022-12-16T14:45:21.258Z,7.18
2022-12-16T14:50:48.115Z,7.24
2022-12-16T14:56:08.851Z,7.20
2022-12-16T15:01:43.390Z,7.13
2022-12-16T15:07:08.791Z,7.00
2022-12-16T15:12:34.099Z,6.93
2022-12-16T15:18:04.195Z,6.87
2022-12-16T15:23:35.227Z,6.83
2022-12-16T15:29:03.660Z,6.91
2022-12-16T15:35:07.110Z,6.97
2022-12-16T15:40:55.517Z,7.00
2022-12-16T15:46:16.378Z,6.97
2022-12-16T15:51:49.444Z,7.01
2022-12-16T15:57:09.823Z,7.06
2022-12-16T16:02:45.638Z,7.07
2022-12-16T16:08:06.361Z,7.04
2022-12-16T16:13:28.451Z,7.03
2022-12-16T16:18:48.555Z,6.87
2022-12-16T16:24:08.926Z,6.77
2022-12-16T16:29:31.786Z,6.73
2022-12-16T16:34:52.278Z,6.73
2022-12-16T16:40:12.702Z,6.80
2022-12-16T16:45:33.299Z,6.82
2022-12-16T16:50:53.741Z,6.86
2022-12-16T16:56:19.834Z,6.92
2022-12-16T17:01:40.654Z,6.93
2022-12-16T17:07:00.840Z,7.00
2022-12-16T17:12:33.293Z,7.06
2022-12-16T17:17:53.771Z,7.03
2022-12-16T17:23:15.215Z,7.01
2022-12-16T17:28:35.551Z,6.96
2022-12-16T17:33:56.182Z,6.91
2022-12-16T17:39:16.695Z,6.80
2022-12-16T17:44:37.756Z,6.80
2022-12-16T17:49:58.203Z,6.80
2022-12-16T17:55:19.094Z,6.79
2022-12-16T18:00:39.264Z,6.80
2022-12-16T18:05:59.722Z,6.79
2022-12-16T18:11:20.150Z,6.78
2022-12-16T18:16:40.783Z,6.84
2022-12-16T18:22:02.568Z,6.90
2022-12-16T18:27:23.308Z,6.83
2022-12-16T18:32:43.675Z,6.76
2022-12-16T18:38:04.037Z,6.71
2022-12-16T18:43:24.534Z,6.67
2022-12-16T18:48:45.433Z,6.59
2022-12-16T18:54:08.376Z,6.58
2022-12-16T18:59:28.672Z,6.47
2022-12-16T19:04:49.187Z,6.28
2022-12-16T19:10:09.297Z,6.21
2022-12-16T19:15:29.874Z,6.00
2022-12-16T19:20:50.563Z,5.87
2022-12-16T19:26:15.800Z,5.81
2022-12-16T19:31:36.313Z,5.90
2022-12-16T19:36:56.738Z,5.83
2022-12-16T19:42:18.305Z,5.79
2022-12-16T19:47:38.707Z,5.91
2022-12-16T19:52:59.292Z,5.98
2022-12-16T19:58:19.784Z,6.04
2022-12-16T20:03:40.369Z,5.98
2022-12-16T20:09:05.220Z,5.92
2022-12-16T20:14:26.774Z,5.94
2022-12-16T20:19:47.313Z,5.84
2022-12-16T20:25:07.971Z,5.73
2022-12-16T20:30:29.628Z,5.59
2022-12-16T20:35:49.781Z,5.53
2022-12-16T20:41:17.948Z,5.47
2022-12-16T20:46:38.548Z,5.45
2022-12-16T20:51:59.045Z,5.54
2022-12-16T20:57:19.659Z,5.53
2022-12-16T21:02:40.338Z,5.44
2022-12-16T21:08:01.517Z,5.36
2022-12-16T21:13:33.718Z,5.47
2022-12-16T21:18:54.556Z,5.44
2022-12-16T21:24:17.018Z,5.46
2022-12-16T21:29:37.772Z,5.45
2022-12-16T21:34:58.158Z,5.24
2022-12-16T21:40:18.848Z,5.21
2022-12-16T21:45:39.160Z,5.23
2022-12-16T21:50:59.650Z,5.21
2022-12-16T21:56:20.035Z,5.20
2022-12-16T22:01:40.675Z,5.19
2022-12-16T22:07:01.317Z,5.28
2022-12-16T22:12:28.332Z,5.18
2022-12-16T22:23:30.347Z,4.97
2022-12-16T22:28:50.921Z,5.00
2022-12-16T22:34:12.627Z,5.13
2022-12-16T22:39:33.197Z,5.20
2022-12-16T22:44:53.885Z,5.27
2022-12-16T22:50:16.960Z,5.31
2022-12-16T22:55:37.569Z,5.22
2022-12-16T23:00:58.131Z,5.15
2022-12-16T23:06:18.728Z,5.17
2022-12-16T23:11:50.799Z,5.12
2022-12-16T23:17:12.736Z,5.06
2022-12-16T23:22:33.575Z,5.10
2022-12-16T23:27:54.081Z,5.05
2022-12-16T23:36:44.684Z,4.08
2022-12-16T23:42:05.201Z,4.88
2022-12-16T23:47:25.410Z,4.85
2022-12-16T23:52:45.904Z,4.81
2022-12-16T23:58:06.228Z,4.75
